Time;durP1;ratioP1;P1;durP2;ratioP2;P2;SDS_P1;SDS_P2;PMS_P1;PMS_P2;Temp;Humidity;BMP_temperature;BMP_pressure;BME280_temperature;BME280_humidity;BME280_pressure;Samples;Min_cycle;Max_cycle;Signal;HPM_P1;HPM_P2
2021/11/01 00:01:21;;;;;;;14.98;1.77;;;;;;;;;;5006853;28;20038;-58
2021/11/01 00:03:49;;;;;;;13.43;1.40;;;;;;;;;;5001785;28;20058;-57
2021/11/01 00:06:16;;;;;;;8.82;1.63;;;;;;;;;;5006161;28;20022;-57
2021/11/01 00:08:42;;;;;;;8.82;1.35;;;;;;;;;;5003544;28;20042;-57
2021/11/01 00:11:08;;;;;;;10.70;1.67;;;;;;;;;;5001999;28;20050;-57
2021/11/01 00:13:35;;;;;;;11.93;1.30;;;;;;;;;;4982839;28;20050;-57
2021/11/01 00:16:03;;;;;;;6.30;1.25;;;;;;;;;;4995534;28;20067;-57
2021/11/01 00:18:29;;;;;;;7.67;2.20;;;;;;;;;;5005649;28;20054;-57
2021/11/01 00:20:57;;;;;;;13.27;1.77;;;;;;;;;;5002284;28;20030;-57
2021/11/01 00:23:36;;;;;;;6.20;1.73;;;;;;;;;;5004939;28;20045;-57
2021/11/01 00:26:02;;;;;;;10.57;1.60;;;;;;;;;;5002101;28;20057;-57
2021/11/01 00:28:29;;;;;;;12.80;1.63;;;;;;;;;;5006421;28;20045;-57
2021/11/01 00:30:56;;;;;;;10.32;1.50;;;;;;;;;;5000777;28;20038;-58
2021/11/01 00:33:25;;;;;;;10.80;1.75;;;;;;;;;;5003191;28;20038;-57
2021/11/01 00:35:52;;;;;;;6.38;1.63;;;;;;;;;;5002274;28;20034;-57
2021/11/01 00:38:20;;;;;;;8.60;1.48;;;;;;;;;;5006624;28;20097;-58
2021/11/01 00:40:47;;;;;;;13.18;1.60;;;;;;;;;;5002660;28;20054;-58
2021/11/01 00:43:21;;;;;;;11.07;1.90;;;;;;;;;;5006541;28;20101;-59
2021/11/01 00:45:47;;;;;;;7.57;1.55;;;;;;;;;;5001121;28;20112;-58
2021/11/01 00:48:14;;;;;;;10.27;1.83;;;;;;;;;;5005658;28;20037;-58
2021/11/01 00:50:41;;;;;;;8.75;1.58;;;;;;;;;;5002539;28;20057;-58
2021/11/01 00:53:09;;;;;;;11.27;1.50;;;;;;;;;;5005190;28;20136;-58
2021/11/01 00:55:48;;;;;;;10.80;1.40;;;;;;;;;;5003105;28;20042;-58
2021/11/01 00:58:14;;;;;;;8.10;1.30;;;;;;;;;;5004512;28;20050;-58
2021/11/01 01:00:41;;;;;;;6.07;1.27;;;;;;;;;;5005481;28;20026;-61
2021/11/01 01:03:07;;;;;;;6.88;1.10;;;;;;;;;;5021832;28;20115;-58
2021/11/01 01:05:34;;;;;;;5.95;1.52;;;;;;;;;;5022233;28;20041;-58
2021/11/01 01:08:00;;;;;;;9.18;1.83;;;;;;;;;;5004396;28;20034;-58
2021/11/01 01:10:27;;;;;;;7.00;1.48;;;;;;;;;;5004915;28;20030;-58
2021/11/01 01:12:55;;;;;;;10.73;2.03;;;;;;;;;;5004799;28;20034;-58
2021/11/01 01:15:24;;;;;;;10.98;1.70;;;;;;;;;;5003680;28;20289;-58
2021/11/01 01:17:51;;;;;;;10.30;1.55;;;;;;;;;;5016455;28;20053;-58
2021/11/01 01:20:20;;;;;;;15.70;2.20;;;;;;;;;;5024042;28;20038;-58
2021/11/01 01:22:47;;;;;;;6.40;2.13;;;;;;;;;;5013951;28;20033;-59
2021/11/01 01:25:18;;;;;;;9.27;2.15;;;;;;;;;;5024502;28;20041;-58
2021/11/01 01:27:45;;;;;;;17.80;2.88;;;;;;;;;;5009174;28;20038;-58
2021/11/01 01:30:14;;;;;;;7.78;2.30;;;;;;;;;;5005812;28;20039;-58
2021/11/01 01:32:41;;;;;;;7.63;2.00;;;;;;;;;;5002141;28;20049;-58
2021/11/01 01:35:11;;;;;;;10.63;2.28;;;;;;;;;;5005359;28;20038;-58
2021/11/01 01:37:38;;;;;;;9.68;2.40;;;;;;;;;;5002735;28;20056;-57
2021/11/01 01:40:06;;;;;;;6.35;1.90;;;;;;;;;;5005708;28;20038;-58
2021/11/01 01:42:33;;;;;;;8.27;2.20;;;;;;;;;;5001549;28;20040;-57
2021/11/01 01:45:03;;;;;;;11.63;2.72;;;;;;;;;;5004727;28;20042;-57
2021/11/01 01:47:31;;;;;;;7.47;2.40;;;;;;;;;;5018608;28;20061;-58
2021/11/01 01:49:58;;;;;;;9.30;2.58;;;;;;;;;;5005197;28;20034;-58
2021/11/01 01:52:25;;;;;;;9.77;2.60;;;;;;;;;;5005085;28;20034;-58
2021/11/01 01:54:53;;;;;;;8.77;2.10;;;;;;;;;;5004808;28;20121;-57
2021/11/01 01:57:22;;;;;;;21.33;3.08;;;;;;;;;;5002833;28;20045;-58
2021/11/01 01:59:48;;;;;;;12.18;2.08;;;;;;;;;;5000281;28;20038;-58
2021/11/01 02:02:15;;;;;;;9.65;2.10;;;;;;;;;;5003452;28;20030;-58
2021/11/01 02:04:46;;;;;;;6.90;1.45;;;;;;;;;;5001567;28;20054;-58
2021/11/01 02:07:18;;;;;;;8.25;1.80;;;;;;;;;;5006540;28;20049;-58
2021/11/01 02:09:47;;;;;;;5.32;1.52;;;;;;;;;;5001816;28;20034;-58
2021/11/01 02:12:16;;;;;;;7.60;2.47;;;;;;;;;;5000878;28;20054;-58
2021/11/01 02:14:46;;;;;;;11.57;2.20;;;;;;;;;;4996944;28;20281;-58
2021/11/01 02:17:13;;;;;;;7.72;1.92;;;;;;;;;;4985549;28;20034;-58
2021/11/01 02:19:46;;;;;;;6.07;1.45;;;;;;;;;;4989432;28;20116;-58
2021/11/01 02:22:15;;;;;;;6.70;1.30;;;;;;;;;;4988294;28;20416;-58
2021/11/01 02:24:44;;;;;;;9.27;1.58;;;;;;;;;;5011455;28;20034;-58
2021/11/01 02:27:12;;;;;;;4.22;1.30;;;;;;;;;;5005886;28;20038;-58
2021/11/01 02:29:41;;;;;;;10.90;1.65;;;;;;;;;;5001557;28;20038;-58
2021/11/01 02:32:08;;;;;;;11.25;2.20;;;;;;;;;;5002822;28;20120;-58
2021/11/01 02:34:47;;;;;;;9.00;1.75;;;;;;;;;;5003823;28;20037;-58
2021/11/01 02:37:14;;;;;;;6.75;1.27;;;;;;;;;;5023369;28;20127;-58
2021/11/01 02:39:51;;;;;;;6.18;1.60;;;;;;;;;;5018524;28;20050;-58
2021/11/01 02:42:19;;;;;;;4.60;1.08;;;;;;;;;;5002939;28;20289;-58
2021/11/01 02:45:00;;;;;;;6.38;1.52;;;;;;;;;;5000208;28;20097;-58
2021/11/01 02:47:27;;;;;;;12.18;1.95;;;;;;;;;;5003257;28;20065;-58
2021/11/01 02:49:54;;;;;;;13.00;1.90;;;;;;;;;;4999793;28;20057;-58
2021/11/01 02:52:21;;;;;;;6.82;1.40;;;;;;;;;;5004629;28;20053;-58
2021/11/01 02:54:50;;;;;;;9.30;1.90;;;;;;;;;;5001795;28;20086;-58
2021/11/01 02:57:16;;;;;;;6.75;1.40;;;;;;;;;;4985094;28;20027;-58
2021/11/01 02:59:44;;;;;;;6.88;1.73;;;;;;;;;;4999857;28;20049;-58
2021/11/01 03:02:11;;;;;;;6.43;1.60;;;;;;;;;;5002293;28;20038;-57
2021/11/01 03:04:45;;;;;;;7.88;1.40;;;;;;;;;;5019771;28;20104;-58
2021/11/01 03:07:12;;;;;;;5.05;0.80;;;;;;;;;;5017427;28;20040;-58
2021/11/01 03:09:40;;;;;;;2.25;0.77;;;;;;;;;;5024205;28;20034;-57
2021/11/01 03:12:09;;;;;;;9.23;1.27;;;;;;;;;;5009570;28;20203;-58
2021/11/01 03:14:52;;;;;;;8.20;1.10;;;;;;;;;;5007073;28;20045;-58
2021/11/01 03:17:22;;;;;;;6.07;1.20;;;;;;;;;;5003802;28;20097;-57
2021/11/01 03:19:50;;;;;;;3.28;0.98;;;;;;;;;;5007552;28;20049;-58
2021/11/01 03:22:18;;;;;;;6.03;1.00;;;;;;;;;;5005133;28;20049;-57
2021/11/01 03:24:52;;;;;;;7.97;0.93;;;;;;;;;;5027000;28;20115;-58
2021/11/01 03:27:19;;;;;;;6.55;1.23;;;;;;;;;;5009032;28;20045;-58
2021/11/01 03:29:46;;;;;;;8.02;0.90;;;;;;;;;;5006426;28;20132;-58
2021/11/01 03:32:13;;;;;;;8.07;1.40;;;;;;;;;;5003658;28;20077;-58
2021/11/01 03:34:51;;;;;;;10.38;1.20;;;;;;;;;;5006599;28;20046;-58
2021/11/01 03:37:18;;;;;;;9.18;1.60;;;;;;;;;;5003444;28;20066;-58
2021/11/01 03:39:48;;;;;;;4.75;1.05;;;;;;;;;;5007178;28;20042;-58
2021/11/01 03:42:15;;;;;;;5.45;1.15;;;;;;;;;;5003561;28;20030;-58
2021/11/01 03:44:53;;;;;;;7.73;1.20;;;;;;;;;;5005918;28;20034;-58
2021/11/01 03:47:21;;;;;;;6.20;1.20;;;;;;;;;;5003504;28;20058;-58
2021/11/01 03:49:57;;;;;;;3.67;0.93;;;;;;;;;;5017524;28;20038;-58
2021/11/01 03:52:28;;;;;;;8.45;1.27;;;;;;;;;;5005704;28;20343;-58
2021/11/01 03:55:09;;;;;;;4.30;1.02;;;;;;;;;;5022808;28;20038;-58
2021/11/01 03:57:36;;;;;;;5.18;1.17;;;;;;;;;;5019453;28;21379;-58
2021/11/01 04:00:05;;;;;;;5.68;1.25;;;;;;;;;;5005699;28;20120;-59
2021/11/01 04:02:32;;;;;;;5.22;1.13;;;;;;;;;;5003225;28;20113;-59
2021/11/01 04:05:00;;;;;;;9.18;1.40;;;;;;;;;;5003225;28;20046;-57
2021/11/01 04:07:28;;;;;;;14.93;1.70;;;;;;;;;;4995696;28;20046;-58
2021/11/01 04:09:55;;;;;;;6.07;1.20;;;;;;;;;;5002804;28;20124;-58
2021/11/01 04:12:21;;;;;;;11.55;1.50;;;;;;;;;;4993972;28;20070;-58
2021/11/01 04:14:54;;;;;;;5.05;1.13;;;;;;;;;;5001518;28;20054;-58
2021/11/01 04:17:25;;;;;;;8.57;1.35;;;;;;;;;;5005616;28;20034;-58
2021/11/01 04:20:03;;;;;;;3.88;1.10;;;;;;;;;;5002409;28;20128;-58
2021/11/01 04:22:31;;;;;;;;;;;;;;;;;;5009374;28;20040;-58
2021/11/01 04:25:06;;;;;;;6.60;1.10;;;;;;;;;;5037080;28;19922;-57
2021/11/01 04:27:32;;;;;;;9.32;1.00;;;;;;;;;;5025466;28;20029;-58
2021/11/01 04:30:00;;;;;;;6.13;1.67;;;;;;;;;;5008818;28;20042;-58
2021/11/01 04:32:33;;;;;;;11.10;1.30;;;;;;;;;;5004598;28;20046;-58
2021/11/01 04:35:08;;;;;;;6.82;1.35;;;;;;;;;;5001468;28;20034;-58
2021/11/01 04:37:35;;;;;;;16.35;1.58;;;;;;;;;;5006010;28;20087;-58
2021/11/01 04:40:13;;;;;;;6.22;1.00;;;;;;;;;;5001194;28;20030;-58
2021/11/01 04:53:58;;;;;;;9.77;1.38;;;;;;;;;;5002117;28;20052;-58
2021/11/01 04:56:26;;;;;;;10.65;1.85;;;;;;;;;;5001380;28;20050;-58
2021/11/01 04:58:54;;;;;;;11.45;1.83;;;;;;;;;;5006232;28;20089;-58
2021/11/01 05:01:22;;;;;;;9.45;2.10;;;;;;;;;;5002065;28;20108;-58
2021/11/01 05:03:53;;;;;;;;;;;;;;;;;;4999304;28;20033;-58
2021/11/01 05:06:22;;;;;;;5.68;1.40;;;;;;;;;;5001370;28;19933;-58
2021/11/01 05:08:55;;;;;;;8.00;1.80;;;;;;;;;;5005343;28;20057;-58
2021/11/01 05:11:29;;;;;;;10.02;2.00;;;;;;;;;;5001979;28;20037;-58
2021/11/01 05:13:59;;;;;;;8.13;1.70;;;;;;;;;;5005097;28;20034;-59
2021/11/01 05:16:35;;;;;;;8.93;1.90;;;;;;;;;;5022041;28;20037;-58
2021/11/01 05:19:06;;;;;;;6.20;2.00;;;;;;;;;;5023839;28;20041;-58
2021/11/01 05:21:35;;;;;;;10.55;2.33;;;;;;;;;;5012113;28;20046;-59
2021/11/01 05:24:05;;;;;;;6.60;1.42;;;;;;;;;;5020787;28;20061;-58
2021/11/01 05:26:49;;;;;;;8.63;2.17;;;;;;;;;;5022565;28;20046;-58
2021/11/01 05:29:17;;;;;;;8.25;1.48;;;;;;;;;;5021990;28;20045;-59
2021/11/01 05:31:47;;;;;;;7.13;1.20;;;;;;;;;;5019318;28;20034;-58
2021/11/01 05:34:17;;;;;;;9.52;1.88;;;;;;;;;;5022053;28;20037;-58
2021/11/01 05:36:44;;;;;;;6.57;1.42;;;;;;;;;;5015776;28;20057;-58
2021/11/01 05:39:10;;;;;;;9.00;1.33;;;;;;;;;;5004114;28;20042;-58
2021/11/01 05:41:37;;;;;;;17.08;1.42;;;;;;;;;;5001570;28;20096;-58
2021/11/01 05:44:04;;;;;;;7.75;1.35;;;;;;;;;;5005904;28;20039;-59
2021/11/01 05:46:37;;;;;;;4.68;1.17;;;;;;;;;;5001842;28;20045;-57
2021/11/01 05:49:04;;;;;;;9.05;1.15;;;;;;;;;;5005649;28;20047;-58
2021/11/01 05:51:31;;;;;;;12.27;1.17;;;;;;;;;;5010822;28;20038;-58
2021/11/01 05:54:00;;;;;;;9.45;1.58;;;;;;;;;;5018829;28;20029;-57
2021/11/01 05:56:35;;;;;;;11.27;1.40;;;;;;;;;;5024461;28;20030;-58
2021/11/01 05:59:33;;;;;;;6.38;1.05;;;;;;;;;;5004191;28;20050;-57
2021/11/01 06:02:27;;;;;;;11.25;1.83;;;;;;;;;;5002112;28;20050;-57
2021/11/01 06:05:11;;;;;;;10.80;1.33;;;;;;;;;;5001652;28;20050;-57
2021/11/01 06:07:44;;;;;;;11.35;1.77;;;;;;;;;;5003364;28;20030;-57
2021/11/01 06:10:12;;;;;;;11.52;1.98;;;;;;;;;;5022319;28;20129;-58
2021/11/01 06:15:38;;;;;;;6.30;1.38;;;;;;;;;;4999638;28;20041;-58
2021/11/01 06:18:06;;;;;;;8.00;1.10;;;;;;;;;;4987283;28;20061;-58
2021/11/01 06:20:32;;;;;;;14.90;1.45;;;;;;;;;;5011839;28;20045;-58
2021/11/01 06:23:02;;;;;;;6.40;0.98;;;;;;;;;;4995459;28;20129;-58
2021/11/01 06:25:29;;;;;;;10.90;1.35;;;;;;;;;;4997798;28;20053;-58
2021/11/01 06:27:56;;;;;;;8.20;1.20;;;;;;;;;;4997379;28;20062;-59
2021/11/01 06:30:27;;;;;;;9.15;1.30;;;;;;;;;;4989221;28;20057;-58
2021/11/01 06:33:16;;;;;;;3.38;1.20;;;;;;;;;;4994555;28;20066;-58
2021/11/01 06:44:23;;;;;;;7.05;1.52;;;;;;;;;;4991472;28;20107;-58
2021/11/01 06:49:48;;;;;;;9.15;1.65;;;;;;;;;;5013523;28;20034;-57
2021/11/01 06:55:19;;;;;;;9.07;1.58;;;;;;;;;;4993442;28;20169;-58
2021/11/01 06:57:52;;;;;;;12.93;1.30;;;;;;;;;;4998612;28;20065;-58
2021/11/01 07:16:54;;;;;;;12.63;1.50;;;;;;;;;;4980935;28;20048;-58
2021/11/01 07:19:28;;;;;;;10.77;1.40;;;;;;;;;;5025908;28;20038;-58
2021/11/01 07:25:20;;;;;;;11.25;1.23;;;;;;;;;;5007653;28;20044;-58
2021/11/01 08:28:37;;;;;;;5.63;1.10;;;;;;;;;;4987979;28;20041;-59
2021/11/01 08:36:53;;;;;;;6.32;1.17;;;;;;;;;;5006705;28;20030;-59
2021/11/01 08:47:49;;;;;;;7.40;1.10;;;;;;;;;;5008096;28;20328;-58
2021/11/01 09:01:42;;;;;;;6.03;0.98;;;;;;;;;;5003738;28;20050;-59
2021/11/01 09:04:30;;;;;;;7.32;1.10;;;;;;;;;;5001464;28;20105;-59
2021/11/01 09:10:15;;;;;;;6.60;1.30;;;;;;;;;;4996171;28;20058;-58
2021/11/01 09:21:13;;;;;;;7.68;1.25;;;;;;;;;;4999582;28;20065;-59
2021/11/01 09:24:01;;;;;;;7.28;1.20;;;;;;;;;;5022533;28;20042;-59
2021/11/01 09:26:32;;;;;;;9.93;1.20;;;;;;;;;;5010825;28;20038;-58
2021/11/01 09:29:02;;;;;;;7.00;1.20;;;;;;;;;;5005414;28;20041;-59
2021/11/01 09:37:08;;;;;;;9.10;1.60;;;;;;;;;;4994927;28;20042;-59
2021/11/01 09:42:24;;;;;;;6.07;1.33;;;;;;;;;;4999880;28;20065;-60
2021/11/01 09:45:01;;;;;;;8.70;1.40;;;;;;;;;;5003260;28;20050;-59
2021/11/01 09:47:29;;;;;;;12.30;1.23;;;;;;;;;;5015451;28;20041;-60
2021/11/01 09:49:56;;;;;;;7.73;1.50;;;;;;;;;;5022410;28;20052;-59
2021/11/01 09:52:24;;;;;;;3.45;1.33;;;;;;;;;;5009265;28;20038;-59
2021/11/01 09:54:54;;;;;;;;;;;;;;;;;;5004342;28;20066;-60
2021/11/01 09:57:24;;;;;;;7.63;1.50;;;;;;;;;;4999743;28;19974;-59
2021/11/01 09:59:49;;;;;;;16.38;1.20;;;;;;;;;;5001186;28;20041;-58
2021/11/01 10:02:18;;;;;;;4.82;1.00;;;;;;;;;;5002826;28;20042;-60
2021/11/01 10:04:46;;;;;;;2.75;1.00;;;;;;;;;;5002147;28;20046;-58
2021/11/01 10:07:20;;;;;;;6.32;1.35;;;;;;;;;;4999028;28;20037;-58
2021/11/01 10:09:48;;;;;;;5.00;1.17;;;;;;;;;;5002739;28;20033;-58
2021/11/01 10:12:18;;;;;;;6.40;1.33;;;;;;;;;;5000827;28;20127;-59
2021/11/01 10:14:49;;;;;;;6.32;1.48;;;;;;;;;;5003578;28;20286;-59
2021/11/01 10:17:34;;;;;;;5.15;1.05;;;;;;;;;;5000897;28;20076;-59
2021/11/01 10:20:00;;;;;;;6.50;1.00;;;;;;;;;;5005039;28;20049;-59
2021/11/01 10:22:33;;;;;;;2.30;0.70;;;;;;;;;;5004732;28;20073;-58
2021/11/01 10:25:14;;;;;;;3.55;1.02;;;;;;;;;;5006927;28;20105;-59
2021/11/01 10:27:41;;;;;;;3.92;1.30;;;;;;;;;;5000343;28;20101;-58
2021/11/01 10:30:09;;;;;;;8.55;1.25;;;;;;;;;;5007881;28;20034;-58
2021/11/01 10:32:37;;;;;;;5.95;1.00;;;;;;;;;;5004700;28;20034;-58
2021/11/01 10:35:15;;;;;;;6.82;0.90;;;;;;;;;;5005677;28;20038;-58
2021/11/01 10:37:56;;;;;;;9.48;1.02;;;;;;;;;;5006651;28;20048;-58
2021/11/01 10:40:25;;;;;;;7.03;1.17;;;;;;;;;;4987165;28;20055;-59
2021/11/01 10:42:53;;;;;;;3.80;0.98;;;;;;;;;;4987114;28;20162;-60
2021/11/01 10:45:32;;;;;;;8.80;1.23;;;;;;;;;;5022731;28;20053;-59
2021/11/01 11:12:53;;;;;;;4.57;1.13;;;;;;;;;;5005694;28;20042;-59
2021/11/01 11:15:22;;;;;;;5.30;0.95;;;;;;;;;;5003871;28;20054;-60
2021/11/01 11:18:03;;;;;;;3.20;0.90;;;;;;;;;;5005089;28;20042;-58
2021/11/01 11:26:37;;;;;;;5.13;0.80;;;;;;;;;;4972607;28;20049;-59
2021/11/01 11:29:28;;;;;;;4.60;1.00;;;;;;;;;;5004564;28;20089;-59
2021/11/01 11:40:39;;;;;;;3.70;0.98;;;;;;;;;;4985634;28;20043;-59
2021/11/01 11:48:44;;;;;;;9.15;1.00;;;;;;;;;;5003149;28;20038;-58
2021/11/01 11:51:11;;;;;;;5.20;1.17;;;;;;;;;;5006825;28;20127;-58
2021/11/01 11:53:51;;;;;;;7.60;0.98;;;;;;;;;;5023690;28;20385;-58
2021/11/01 11:56:19;;;;;;;2.75;0.77;;;;;;;;;;5016326;28;20049;-58
2021/11/01 11:58:46;;;;;;;;;;;;;;;;;;5005396;28;20061;-59
2021/11/01 12:01:24;;;;;;;6.47;1.25;;;;;;;;;;5016702;28;19918;-58
2021/11/01 12:03:50;;;;;;;10.57;0.98;;;;;;;;;;5004352;28;20045;-59
2021/11/01 12:06:21;;;;;;;5.00;0.93;;;;;;;;;;4995093;28;20038;-59
2021/11/01 12:08:51;;;;;;;5.63;1.40;;;;;;;;;;5025384;28;20033;-59
2021/11/01 12:11:33;;;;;;;7.47;1.00;;;;;;;;;;5024354;28;20045;-59
2021/11/01 12:19:42;;;;;;;5.47;0.93;;;;;;;;;;4979574;28;20053;-59
2021/11/01 12:22:12;;;;;;;8.32;1.10;;;;;;;;;;5002309;28;20189;-58
2021/11/01 12:24:46;;;;;;;5.63;1.00;;;;;;;;;;5026737;28;20041;-59
2021/11/01 12:27:13;;;;;;;4.57;0.85;;;;;;;;;;5019488;28;20043;-59
2021/11/01 12:29:39;;;;;;;5.28;1.05;;;;;;;;;;5002512;28;20484;-58
2021/11/01 12:32:10;;;;;;;5.13;1.00;;;;;;;;;;5004828;28;20041;-59
2021/11/01 12:34:41;;;;;;;2.75;0.80;;;;;;;;;;4991433;28;20030;-59
2021/11/01 12:37:14;;;;;;;4.13;1.00;;;;;;;;;;4984902;28;20042;-58
2021/11/01 12:39:43;;;;;;;6.28;0.98;;;;;;;;;;5000005;28;20054;-59
2021/11/01 12:42:41;;;;;;;;;;;;;;;;;;5006560;28;20034;-58
2021/11/01 12:48:57;;;;;;;7.78;1.15;;;;;;;;;;5126244;27;20136;-61
2021/11/01 12:57:04;;;;;;;5.13;1.13;;;;;;;;;;5098986;28;20028;-59
2021/11/01 12:59:40;;;;;;;4.18;0.88;;;;;;;;;;5096796;28;20074;-60
2021/11/01 13:02:06;;;;;;;4.75;0.95;;;;;;;;;;5100402;28;20072;-61
2021/11/01 13:04:38;;;;;;;6.35;1.23;;;;;;;;;;5096885;28;20067;-59
2021/11/01 13:07:13;;;;;;;4.22;1.13;;;;;;;;;;5098182;28;20044;-60
2021/11/01 13:09:44;;;;;;;4.47;0.82;;;;;;;;;;5103005;28;20081;-60
2021/11/01 13:12:35;;;;;;;4.82;1.00;;;;;;;;;;5108143;28;20044;-60
2021/11/01 13:18:08;;;;;;;3.92;0.80;;;;;;;;;;5111910;28;20132;-60
2021/11/01 13:20:37;;;;;;;9.02;1.20;;;;;;;;;;5112975;27;20040;-61
2021/11/01 13:23:07;;;;;;;4.00;1.00;;;;;;;;;;5118885;27;20056;-62
2021/11/01 13:25:39;;;;;;;5.13;0.80;;;;;;;;;;5132541;27;20135;-60
2021/11/01 13:28:23;;;;;;;5.63;1.15;;;;;;;;;;5136663;27;20085;-60
2021/11/01 13:39:05;;;;;;;6.10;1.20;;;;;;;;;;5097795;28;20158;-60
2021/11/01 13:41:32;;;;;;;7.18;1.00;;;;;;;;;;5104373;28;20047;-60
2021/11/01 13:44:09;;;;;;;8.25;1.25;;;;;;;;;;5121439;27;20120;-61
2021/11/01 13:46:42;;;;;;;6.07;0.95;;;;;;;;;;5102716;28;20047;-60
2021/11/01 13:49:09;;;;;;;5.22;1.05;;;;;;;;;;5097832;28;20032;-60
2021/11/01 13:51:37;;;;;;;8.07;0.90;;;;;;;;;;5091598;28;20046;-60
2021/11/01 13:54:08;;;;;;;8.48;1.20;;;;;;;;;;5102557;28;20065;-61
2021/11/01 13:56:39;;;;;;;5.70;0.88;;;;;;;;;;5098794;28;20101;-60
2021/11/01 13:59:20;;;;;;;6.53;1.05;;;;;;;;;;5089434;28;20036;-61
2021/11/01 14:01:58;;;;;;;8.10;1.02;;;;;;;;;;5096230;28;20047;-62
2021/11/01 14:12:47;;;;;;;12.02;0.98;;;;;;;;;;5097515;28;20092;-59
2021/11/01 14:15:28;;;;;;;6.20;0.90;;;;;;;;;;5091634;28;20046;-61
2021/11/01 14:18:16;;;;;;;4.60;1.05;;;;;;;;;;5106117;28;20043;-60
2021/11/01 14:26:48;;;;;;;6.27;1.10;;;;;;;;;;5106932;28;20039;-60
2021/11/01 14:29:22;;;;;;;5.13;0.95;;;;;;;;;;5104594;28;20032;-60
2021/11/01 14:35:04;;;;;;;2.70;0.90;;;;;;;;;;5072173;28;20032;-60
2021/11/01 15:08:17;;;;;;;8.45;1.40;;;;;;;;;;5125882;27;20023;-60
2021/11/01 15:13:49;;;;;;;2.05;0.70;;;;;;;;;;5120432;27;20024;-61
2021/11/01 15:16:27;;;;;;;4.25;0.80;;;;;;;;;;5087418;28;20043;-60
2021/11/01 15:19:13;;;;;;;5.70;1.05;;;;;;;;;;5082170;27;20117;-60
2021/11/01 15:21:50;;;;;;;9.68;1.00;;;;;;;;;;5121451;27;20062;-61
2021/11/01 15:24:29;;;;;;;5.60;1.30;;;;;;;;;;5100411;28;20031;-60
2021/11/01 15:41:29;;;;;;;8.85;1.85;;;;;;;;;;5070571;27;20032;-60
2021/11/01 16:17:23;;;;;;;9.73;1.15;;;;;;;;;;5094620;28;20042;-60
2021/11/01 16:19:53;;;;;;;5.07;1.00;;;;;;;;;;5108572;28;20075;-60
2021/11/01 16:22:20;;;;;;;3.85;1.08;;;;;;;;;;5095091;28;20096;-60
2021/11/01 16:24:59;;;;;;;8.32;1.23;;;;;;;;;;5108269;28;20028;-62
2021/11/01 16:27:25;;;;;;;7.55;0.98;;;;;;;;;;5102600;28;20058;-61
2021/11/01 16:29:57;;;;;;;4.07;0.80;;;;;;;;;;5107879;28;20047;-60
2021/11/01 16:32:26;;;;;;;8.38;1.20;;;;;;;;;;5097000;28;20076;-60
2021/11/01 16:35:13;;;;;;;3.90;0.88;;;;;;;;;;5087332;28;20112;-60
2021/11/01 16:37:46;;;;;;;0.85;0.60;;;;;;;;;;5082433;28;20046;-60
2021/11/01 16:40:13;;;;;;;1.77;0.60;;;;;;;;;;5087091;28;20060;-60
2021/11/01 16:42:42;;;;;;;4.45;0.75;;;;;;;;;;5089001;28;20031;-60
2021/11/01 16:45:12;;;;;;;3.10;0.80;;;;;;;;;;5107759;28;20063;-61
2021/11/01 16:47:39;;;;;;;1.75;0.70;;;;;;;;;;5106375;28;20051;-61
2021/11/01 16:50:06;;;;;;;2.03;0.70;;;;;;;;;;5123442;28;20166;-62
2021/11/01 16:52:33;;;;;;;2.88;0.70;;;;;;;;;;5101520;28;20108;-61
2021/11/01 16:55:13;;;;;;;1.90;0.70;;;;;;;;;;5118226;28;20047;-61
2021/11/01 16:57:43;;;;;;;1.63;0.52;;;;;;;;;;5101272;27;20032;-61
2021/11/01 17:03:06;;;;;;;1.98;0.52;;;;;;;;;;5098395;28;20055;-61
2021/11/01 17:05:39;;;;;;;4.05;0.90;;;;;;;;;;5121237;28;20032;-60
2021/11/01 17:08:25;;;;;;;2.83;0.77;;;;;;;;;;5117632;27;20044;-61
2021/11/01 17:21:55;;;;;;;1.73;0.82;;;;;;;;;;5097224;28;20040;-61
2021/11/01 17:24:43;;;;;;;3.08;0.90;;;;;;;;;;5109990;27;20035;-61
2021/11/01 17:35:37;;;;;;;1.85;0.90;;;;;;;;;;5089325;28;20046;-61
2021/11/01 18:36:42;;;;;;;5.90;1.88;;;;;;;;;;5102452;28;20039;-61
2021/11/01 18:45:05;;;;;;;2.35;1.25;;;;;;;;;;5115431;27;20138;-58
2021/11/01 18:53:04;;;;;;;2.03;0.77;;;;;;;;;;5060958;28;20407;-58
2021/11/01 18:55:32;;;;;;;2.58;1.08;;;;;;;;;;5069751;28;20049;-58
2021/11/01 18:57:59;;;;;;;4.63;1.30;;;;;;;;;;5054104;28;20055;-59
2021/11/01 19:00:28;;;;;;;4.97;1.70;;;;;;;;;;5073012;28;20064;-58
2021/11/01 19:02:57;;;;;;;4.80;1.95;;;;;;;;;;5063920;28;20048;-58
2021/11/01 19:05:29;;;;;;;5.18;0.93;;;;;;;;;;5075050;28;20126;-58
2021/11/01 19:08:08;;;;;;;4.93;1.00;;;;;;;;;;5074890;28;20048;-58
2021/11/01 20:03:01;;;;;;;6.18;3.15;;;;;;;;;;5000910;28;20053;-59
2021/11/01 20:05:32;;;;;;;6.15;2.53;;;;;;;;;;5037298;28;20045;-60
2021/11/01 20:13:55;;;;;;;5.25;1.67;;;;;;;;;;5041759;28;20081;-61
2021/11/01 21:25:46;;;;;;;6.53;2.70;;;;;;;;;;5038685;28;20037;-58
2021/11/01 21:28:15;;;;;;;9.35;2.10;;;;;;;;;;5046084;28;20134;-58
2021/11/01 21:30:41;;;;;;;4.60;2.03;;;;;;;;;;5038910;28;20122;-58
2021/11/01 21:33:09;;;;;;;3.75;2.05;;;;;;;;;;5031888;28;20041;-59
2021/11/01 21:35:42;;;;;;;5.10;2.13;;;;;;;;;;5035605;28;20047;-59
2021/11/01 21:38:09;;;;;;;3.72;1.83;;;;;;;;;;5041912;28;20052;-58
2021/11/01 21:40:35;;;;;;;6.78;2.28;;;;;;;;;;5036528;28;20056;-60
2021/11/01 21:43:02;;;;;;;6.35;2.55;;;;;;;;;;5041891;28;20127;-60
2021/11/01 21:45:30;;;;;;;5.80;2.08;;;;;;;;;;5038939;28;20033;-59
2021/11/01 21:47:56;;;;;;;6.17;2.30;;;;;;;;;;5038261;28;20033;-58
2021/11/01 21:50:23;;;;;;;5.43;2.10;;;;;;;;;;5026340;28;20471;-59
2021/11/01 21:52:50;;;;;;;5.70;2.13;;;;;;;;;;5028500;28;20593;-58
2021/11/01 21:55:19;;;;;;;5.55;2.30;;;;;;;;;;5036217;28;20041;-58
2021/11/01 21:57:52;;;;;;;5.20;2.08;;;;;;;;;;5039330;28;20081;-58
2021/11/01 22:00:40;;;;;;;10.93;3.53;;;;;;;;;;5037351;28;20047;-59
2021/11/01 22:17:05;;;;;;;5.68;1.90;;;;;;;;;;5035129;28;20109;-58
2021/11/01 22:22:38;;;;;;;4.00;1.70;;;;;;;;;;5042256;28;20059;-58
2021/11/01 22:25:09;;;;;;;4.40;1.80;;;;;;;;;;5061625;28;20174;-57
2021/11/01 22:33:23;;;;;;;6.45;1.95;;;;;;;;;;5051708;28;20055;-58
2021/11/01 22:57:47;;;;;;;4.78;1.90;;;;;;;;;;5040389;28;20369;-58
2021/11/01 23:00:19;;;;;;;3.65;1.88;;;;;;;;;;5040138;28;20049;-58
2021/11/01 23:02:49;;;;;;;7.43;1.90;;;;;;;;;;5035307;28;20044;-58
2021/11/01 23:05:31;;;;;;;5.80;2.38;;;;;;;;;;5036651;28;20041;-58
2021/11/01 23:32:38;;;;;;;7.00;2.60;;;;;;;;;;5041477;28;20110;-58
2021/11/01 23:35:05;;;;;;;5.60;2.40;;;;;;;;;;5038848;28;20053;-58
2021/11/01 23:37:31;;;;;;;6.07;2.10;;;;;;;;;;5045488;28;20220;-58
2021/11/01 23:39:59;;;;;;;4.18;1.92;;;;;;;;;;5039516;28;20041;-58
2021/11/01 23:42:25;;;;;;;5.10;1.42;;;;;;;;;;5041267;28;20060;-53
2021/11/01 23:44:54;;;;;;;4.32;1.80;;;;;;;;;;5037706;28;20045;-58
2021/11/01 23:47:20;;;;;;;;;;;;;;;;;;5043302;28;20073;-58
2021/11/01 23:49:47;;;;;;;9.35;1.75;;;;;;;;;;5037835;28;20013;-58
2021/11/01 23:52:15;;;;;;;8.70;2.78;;;;;;;;;;5043977;28;20033;-58
2021/11/01 23:54:43;;;;;;;7.40;2.55;;;;;;;;;;5038409;28;20049;-58
2021/11/01 23:57:11;;;;;;;10.38;3.13;;;;;;;;;;5043409;28;20041;-58
2021/11/01 23:59:38;;;;;;;8.45;3.20;;;;;;;;;;5038786;28;20072;-59
